sensor_id;sensor_type;location;lat;lon;timestamp;temperature;humidity
2721;DHT22;1368;49.484;11.112;2024-02-23T00:01:32;10.40;99.90
2721;DHT22;1368;49.484;11.112;2024-02-23T00:03:57;10.50;99.90
2721;DHT22;1368;49.484;11.112;2024-02-23T00:06:23;10.60;99.90
2721;DHT22;1368;49.484;11.112;2024-02-23T00:08:53;10.60;99.90
2721;DHT22;1368;49.484;11.112;2024-02-23T00:11:20;10.70;99.90
2721;DHT22;1368;49.484;11.112;2024-02-23T00:13:46;10.60;99.90
2721;DHT22;1368;49.484;11.112;2024-02-23T00:16:11;10.50;99.90
2721;DHT22;1368;49.484;11.112;2024-02-23T00:18:37;10.30;99.90
2721;DHT22;1368;49.484;11.112;2024-02-23T00:21:03;10.30;99.90
2721;DHT22;1368;49.484;11.112;2024-02-23T00:23:29;10.30;99.90
2721;DHT22;1368;49.484;11.112;2024-02-23T00:25:54;10.30;99.90
2721;DHT22;1368;49.484;11.112;2024-02-23T00:28:20;10.20;99.90
2721;DHT22;1368;49.484;11.112;2024-02-23T00:30:45;10.20;99.90
2721;DHT22;1368;49.484;11.112;2024-02-23T00:33:11;10.10;99.90
2721;DHT22;1368;49.484;11.112;2024-02-23T00:35:36;10.20;99.90
2721;DHT22;1368;49.484;11.112;2024-02-23T00:38:02;10.30;99.90
2721;DHT22;1368;49.484;11.112;2024-02-23T00:40:27;10.10;99.90
2721;DHT22;1368;49.484;11.112;2024-02-23T00:42:53;10.00;99.90
2721;DHT22;1368;49.484;11.112;2024-02-23T00:45:19;10.10;99.90
2721;DHT22;1368;49.484;11.112;2024-02-23T00:47:44;10.00;99.90
2721;DHT22;1368;49.484;11.112;2024-02-23T00:50:12;10.10;99.90
2721;DHT22;1368;49.484;11.112;2024-02-23T00:52:38;10.00;99.90
2721;DHT22;1368;49.484;11.112;2024-02-23T00:55:03;10.00;99.90
2721;DHT22;1368;49.484;11.112;2024-02-23T00:57:29;9.90;99.90
2721;DHT22;1368;49.484;11.112;2024-02-23T00:59:58;9.60;99.90
2721;DHT22;1368;49.484;11.112;2024-02-23T01:02:24;9.60;99.90
2721;DHT22;1368;49.484;11.112;2024-02-23T01:04:49;9.60;99.90
2721;DHT22;1368;49.484;11.112;2024-02-23T01:07:15;9.70;99.90
2721;DHT22;1368;49.484;11.112;2024-02-23T01:09:40;9.60;99.90
2721;DHT22;1368;49.484;11.112;2024-02-23T01:12:06;9.60;99.90
2721;DHT22;1368;49.484;11.112;2024-02-23T01:14:32;9.60;99.90
2721;DHT22;1368;49.484;11.112;2024-02-23T01:16:57;9.60;99.90
2721;DHT22;1368;49.484;11.112;2024-02-23T01:19:23;9.50;99.90
2721;DHT22;1368;49.484;11.112;2024-02-23T01:21:49;9.40;99.90
2721;DHT22;1368;49.484;11.112;2024-02-23T01:24:21;9.40;99.90
2721;DHT22;1368;49.484;11.112;2024-02-23T01:26:46;9.70;99.90
2721;DHT22;1368;49.484;11.112;2024-02-23T01:29:12;9.50;99.90
2721;DHT22;1368;49.484;11.112;2024-02-23T01:31:37;9.40;99.90
2721;DHT22;1368;49.484;11.112;2024-02-23T01:34:03;9.30;99.90
2721;DHT22;1368;49.484;11.112;2024-02-23T01:36:29;9.30;99.90
2721;DHT22;1368;49.484;11.112;2024-02-23T01:38:54;9.20;99.90
2721;DHT22;1368;49.484;11.112;2024-02-23T01:41:20;9.10;99.90
2721;DHT22;1368;49.484;11.112;2024-02-23T01:43:45;9.10;99.90
2721;DHT22;1368;49.484;11.112;2024-02-23T01:46:11;9.10;99.90
2721;DHT22;1368;49.484;11.112;2024-02-23T01:48:37;9.00;99.90
2721;DHT22;1368;49.484;11.112;2024-02-23T01:51:03;9.00;99.90
2721;DHT22;1368;49.484;11.112;2024-02-23T01:53:29;8.80;99.90
2721;DHT22;1368;49.484;11.112;2024-02-23T01:55:56;8.70;99.90
2721;DHT22;1368;49.484;11.112;2024-02-23T01:58:22;8.60;99.90
2721;DHT22;1368;49.484;11.112;2024-02-23T02:00:48;8.50;99.90
2721;DHT22;1368;49.484;11.112;2024-02-23T02:03:14;8.40;99.90
2721;DHT22;1368;49.484;11.112;2024-02-23T02:05:40;8.50;99.90
2721;DHT22;1368;49.484;11.112;2024-02-23T02:08:06;8.60;99.90
2721;DHT22;1368;49.484;11.112;2024-02-23T02:10:31;8.60;99.90
2721;DHT22;1368;49.484;11.112;2024-02-23T02:13:05;8.50;99.90
2721;DHT22;1368;49.484;11.112;2024-02-23T02:15:30;8.80;99.90
2721;DHT22;1368;49.484;11.112;2024-02-23T02:17:56;8.80;99.90
2721;DHT22;1368;49.484;11.112;2024-02-23T02:20:24;8.60;99.90
2721;DHT22;1368;49.484;11.112;2024-02-23T02:22:53;8.70;99.90
2721;DHT22;1368;49.484;11.112;2024-02-23T02:25:19;8.60;99.90
2721;DHT22;1368;49.484;11.112;2024-02-23T02:27:44;8.50;99.90
2721;DHT22;1368;49.484;11.112;2024-02-23T02:30:11;8.50;99.90
2721;DHT22;1368;49.484;11.112;2024-02-23T02:32:37;8.60;99.90
2721;DHT22;1368;49.484;11.112;2024-02-23T02:35:03;8.50;99.90
2721;DHT22;1368;49.484;11.112;2024-02-23T02:37:29;8.40;99.90
2721;DHT22;1368;49.484;11.112;2024-02-23T02:39:54;8.60;99.90
2721;DHT22;1368;49.484;11.112;2024-02-23T02:42:20;8.50;99.90
2721;DHT22;1368;49.484;11.112;2024-02-23T02:44:45;8.70;99.90
2721;DHT22;1368;49.484;11.112;2024-02-23T02:47:11;8.60;99.90
2721;DHT22;1368;49.484;11.112;2024-02-23T02:49:36;8.70;99.90
2721;DHT22;1368;49.484;11.112;2024-02-23T02:52:02;8.80;99.90
2721;DHT22;1368;49.484;11.112;2024-02-23T02:54:28;8.80;99.90
2721;DHT22;1368;49.484;11.112;2024-02-23T02:56:53;8.90;99.90
2721;DHT22;1368;49.484;11.112;2024-02-23T02:59:20;8.90;99.90
2721;DHT22;1368;49.484;11.112;2024-02-23T03:01:45;8.90;99.90
2721;DHT22;1368;49.484;11.112;2024-02-23T03:04:12;8.80;99.90
2721;DHT22;1368;49.484;11.112;2024-02-23T03:06:38;8.70;99.90
2721;DHT22;1368;49.484;11.112;2024-02-23T03:09:03;8.30;99.90
2721;DHT22;1368;49.484;11.112;2024-02-23T03:11:30;8.10;99.90
2721;DHT22;1368;49.484;11.112;2024-02-23T03:13:55;8.10;99.90
2721;DHT22;1368;49.484;11.112;2024-02-23T03:16:21;8.10;99.90
2721;DHT22;1368;49.484;11.112;2024-02-23T03:18:49;8.40;99.90
2721;DHT22;1368;49.484;11.112;2024-02-23T03:21:15;8.60;99.90
2721;DHT22;1368;49.484;11.112;2024-02-23T03:23:41;8.50;99.90
2721;DHT22;1368;49.484;11.112;2024-02-23T03:26:07;8.40;99.90
2721;DHT22;1368;49.484;11.112;2024-02-23T03:28:32;8.20;99.90
2721;DHT22;1368;49.484;11.112;2024-02-23T03:30:59;8.10;99.90
2721;DHT22;1368;49.484;11.112;2024-02-23T03:33:25;8.10;99.90
2721;DHT22;1368;49.484;11.112;2024-02-23T03:35:51;8.00;99.90
2721;DHT22;1368;49.484;11.112;2024-02-23T03:38:16;7.90;99.90
2721;DHT22;1368;49.484;11.112;2024-02-23T03:40:42;7.90;99.90
2721;DHT22;1368;49.484;11.112;2024-02-23T03:43:07;8.10;99.90
2721;DHT22;1368;49.484;11.112;2024-02-23T03:45:33;8.20;99.90
2721;DHT22;1368;49.484;11.112;2024-02-23T03:47:59;8.20;99.90
2721;DHT22;1368;49.484;11.112;2024-02-23T03:50:24;8.20;99.90
2721;DHT22;1368;49.484;11.112;2024-02-23T03:52:50;8.20;99.90
2721;DHT22;1368;49.484;11.112;2024-02-23T03:55:16;8.10;99.90
2721;DHT22;1368;49.484;11.112;2024-02-23T03:57:41;8.10;99.90
2721;DHT22;1368;49.484;11.112;2024-02-23T04:00:07;8.00;99.90
2721;DHT22;1368;49.484;11.112;2024-02-23T04:02:34;8.10;99.90
2721;DHT22;1368;49.484;11.112;2024-02-23T04:05:00;8.10;99.90
2721;DHT22;1368;49.484;11.112;2024-02-23T04:07:25;8.20;99.90
2721;DHT22;1368;49.484;11.112;2024-02-23T04:09:51;8.00;99.90
2721;DHT22;1368;49.484;11.112;2024-02-23T04:12:21;7.80;99.90
2721;DHT22;1368;49.484;11.112;2024-02-23T04:14:46;7.80;99.90
2721;DHT22;1368;49.484;11.112;2024-02-23T04:17:12;8.10;99.90
2721;DHT22;1368;49.484;11.112;2024-02-23T04:19:38;8.20;99.90
2721;DHT22;1368;49.484;11.112;2024-02-23T04:22:06;8.10;99.90
2721;DHT22;1368;49.484;11.112;2024-02-23T04:24:34;8.10;99.90
2721;DHT22;1368;49.484;11.112;2024-02-23T04:26:59;8.00;99.90
2721;DHT22;1368;49.484;11.112;2024-02-23T04:29:25;8.00;99.90
2721;DHT22;1368;49.484;11.112;2024-02-23T04:31:51;8.00;99.90
2721;DHT22;1368;49.484;11.112;2024-02-23T04:34:16;8.30;99.90
2721;DHT22;1368;49.484;11.112;2024-02-23T04:36:42;8.90;99.90
2721;DHT22;1368;49.484;11.112;2024-02-23T04:39:07;8.40;99.90
2721;DHT22;1368;49.484;11.112;2024-02-23T04:41:33;8.40;99.90
2721;DHT22;1368;49.484;11.112;2024-02-23T04:43:59;8.20;99.90
2721;DHT22;1368;49.484;11.112;2024-02-23T04:46:26;7.90;99.90
2721;DHT22;1368;49.484;11.112;2024-02-23T04:48:52;7.80;99.90
2721;DHT22;1368;49.484;11.112;2024-02-23T04:51:17;7.80;99.90
2721;DHT22;1368;49.484;11.112;2024-02-23T04:53:43;7.90;99.90
2721;DHT22;1368;49.484;11.112;2024-02-23T04:56:08;7.90;99.90
2721;DHT22;1368;49.484;11.112;2024-02-23T04:58:34;7.90;99.90
2721;DHT22;1368;49.484;11.112;2024-02-23T05:01:00;8.00;99.90
2721;DHT22;1368;49.484;11.112;2024-02-23T05:03:25;8.20;99.90
2721;DHT22;1368;49.484;11.112;2024-02-23T05:05:52;8.30;99.90
2721;DHT22;1368;49.484;11.112;2024-02-23T05:08:22;8.40;99.90
2721;DHT22;1368;49.484;11.112;2024-02-23T05:10:52;8.30;99.90
2721;DHT22;1368;49.484;11.112;2024-02-23T05:13:17;8.50;99.90
2721;DHT22;1368;49.484;11.112;2024-02-23T05:15:43;8.50;99.90
2721;DHT22;1368;49.484;11.112;2024-02-23T05:18:09;8.50;99.90
2721;DHT22;1368;49.484;11.112;2024-02-23T05:20:34;8.60;99.90
2721;DHT22;1368;49.484;11.112;2024-02-23T05:23:00;8.60;99.90
2721;DHT22;1368;49.484;11.112;2024-02-23T05:25:26;8.40;99.90
2721;DHT22;1368;49.484;11.112;2024-02-23T05:27:52;8.00;99.90
2721;DHT22;1368;49.484;11.112;2024-02-23T05:30:18;8.10;99.90
2721;DHT22;1368;49.484;11.112;2024-02-23T05:32:43;8.30;99.90
2721;DHT22;1368;49.484;11.112;2024-02-23T05:35:09;8.10;99.90
2721;DHT22;1368;49.484;11.112;2024-02-23T05:37:35;8.00;99.90
2721;DHT22;1368;49.484;11.112;2024-02-23T05:40:01;8.10;99.90
2721;DHT22;1368;49.484;11.112;2024-02-23T05:42:29;8.10;99.90
2721;DHT22;1368;49.484;11.112;2024-02-23T05:44:55;8.10;99.90
2721;DHT22;1368;49.484;11.112;2024-02-23T05:47:20;8.10;99.90
2721;DHT22;1368;49.484;11.112;2024-02-23T05:49:47;8.10;99.90
2721;DHT22;1368;49.484;11.112;2024-02-23T05:52:13;8.10;99.90
2721;DHT22;1368;49.484;11.112;2024-02-23T05:54:38;7.90;99.90
2721;DHT22;1368;49.484;11.112;2024-02-23T05:57:04;9.20;99.90
2721;DHT22;1368;49.484;11.112;2024-02-23T05:59:30;8.20;99.90
2721;DHT22;1368;49.484;11.112;2024-02-23T06:01:55;7.50;99.90
2721;DHT22;1368;49.484;11.112;2024-02-23T06:04:24;7.50;99.90
2721;DHT22;1368;49.484;11.112;2024-02-23T06:06:50;7.70;99.90
2721;DHT22;1368;49.484;11.112;2024-02-23T06:09:16;7.60;99.90
2721;DHT22;1368;49.484;11.112;2024-02-23T06:11:41;7.60;99.90
2721;DHT22;1368;49.484;11.112;2024-02-23T06:14:07;9.20;99.90
2721;DHT22;1368;49.484;11.112;2024-02-23T06:16:33;7.70;99.90
2721;DHT22;1368;49.484;11.112;2024-02-23T06:18:59;7.90;99.90
2721;DHT22;1368;49.484;11.112;2024-02-23T06:21:25;8.00;99.90
2721;DHT22;1368;49.484;11.112;2024-02-23T06:23:50;8.10;99.90
2721;DHT22;1368;49.484;11.112;2024-02-23T06:26:16;8.20;99.90
2721;DHT22;1368;49.484;11.112;2024-02-23T06:28:41;8.20;99.90
2721;DHT22;1368;49.484;11.112;2024-02-23T06:31:08;8.20;99.90
2721;DHT22;1368;49.484;11.112;2024-02-23T06:33:34;8.30;99.90
2721;DHT22;1368;49.484;11.112;2024-02-23T06:35:59;8.20;99.90
2721;DHT22;1368;49.484;11.112;2024-02-23T06:38:26;8.10;99.90
2721;DHT22;1368;49.484;11.112;2024-02-23T06:40:52;8.00;99.90
2721;DHT22;1368;49.484;11.112;2024-02-23T06:43:18;8.00;99.90
2721;DHT22;1368;49.484;11.112;2024-02-23T06:45:43;8.10;99.90
2721;DHT22;1368;49.484;11.112;2024-02-23T06:48:09;8.10;99.90
2721;DHT22;1368;49.484;11.112;2024-02-23T06:50:35;8.20;99.90
2721;DHT22;1368;49.484;11.112;2024-02-23T06:53:01;8.20;99.90
2721;DHT22;1368;49.484;11.112;2024-02-23T06:55:28;8.20;99.90
2721;DHT22;1368;49.484;11.112;2024-02-23T06:57:54;7.90;99.90
2721;DHT22;1368;49.484;11.112;2024-02-23T07:00:20;7.80;99.90
2721;DHT22;1368;49.484;11.112;2024-02-23T07:02:46;8.00;99.90
2721;DHT22;1368;49.484;11.112;2024-02-23T07:05:12;8.10;99.90
2721;DHT22;1368;49.484;11.112;2024-02-23T07:07:39;8.20;99.90
2721;DHT22;1368;49.484;11.112;2024-02-23T07:10:06;8.30;99.90
2721;DHT22;1368;49.484;11.112;2024-02-23T07:12:31;8.10;99.90
2721;DHT22;1368;49.484;11.112;2024-02-23T07:14:57;7.90;99.90
2721;DHT22;1368;49.484;11.112;2024-02-23T07:17:23;8.00;99.90
2721;DHT22;1368;49.484;11.112;2024-02-23T07:19:48;8.30;99.90
2721;DHT22;1368;49.484;11.112;2024-02-23T07:22:16;8.40;99.90
2721;DHT22;1368;49.484;11.112;2024-02-23T07:24:43;8.50;99.90
2721;DHT22;1368;49.484;11.112;2024-02-23T07:27:09;8.50;99.90
2721;DHT22;1368;49.484;11.112;2024-02-23T07:29:35;8.50;99.90
2721;DHT22;1368;49.484;11.112;2024-02-23T07:32:01;8.60;99.90
2721;DHT22;1368;49.484;11.112;2024-02-23T07:34:26;8.50;99.90
2721;DHT22;1368;49.484;11.112;2024-02-23T07:36:52;8.50;99.90
2721;DHT22;1368;49.484;11.112;2024-02-23T07:39:18;8.60;99.90
2721;DHT22;1368;49.484;11.112;2024-02-23T07:41:44;8.60;99.90
2721;DHT22;1368;49.484;11.112;2024-02-23T07:44:10;8.80;99.90
2721;DHT22;1368;49.484;11.112;2024-02-23T07:46:35;8.70;99.90
2721;DHT22;1368;49.484;11.112;2024-02-23T07:49:02;8.70;99.90
2721;DHT22;1368;49.484;11.112;2024-02-23T07:51:28;8.80;99.90
2721;DHT22;1368;49.484;11.112;2024-02-23T07:53:54;8.80;99.90
2721;DHT22;1368;49.484;11.112;2024-02-23T07:56:20;8.80;99.90
2721;DHT22;1368;49.484;11.112;2024-02-23T07:58:46;8.70;99.90
2721;DHT22;1368;49.484;11.112;2024-02-23T08:01:13;8.60;99.90
2721;DHT22;1368;49.484;11.112;2024-02-23T08:03:40;8.70;99.90
2721;DHT22;1368;49.484;11.112;2024-02-23T08:06:05;8.40;99.90
2721;DHT22;1368;49.484;11.112;2024-02-23T08:08:31;8.30;99.90
2721;DHT22;1368;49.484;11.112;2024-02-23T08:11:00;8.40;99.90
2721;DHT22;1368;49.484;11.112;2024-02-23T08:13:26;8.60;99.90
2721;DHT22;1368;49.484;11.112;2024-02-23T08:15:52;8.70;99.90
2721;DHT22;1368;49.484;11.112;2024-02-23T08:18:17;8.70;99.90
2721;DHT22;1368;49.484;11.112;2024-02-23T08:20:43;8.60;99.90
2721;DHT22;1368;49.484;11.112;2024-02-23T08:23:08;8.60;99.90
2721;DHT22;1368;49.484;11.112;2024-02-23T08:25:35;8.50;99.90
2721;DHT22;1368;49.484;11.112;2024-02-23T08:28:01;8.30;99.90
2721;DHT22;1368;49.484;11.112;2024-02-23T08:30:27;8.50;99.90
2721;DHT22;1368;49.484;11.112;2024-02-23T08:32:52;8.90;99.90
2721;DHT22;1368;49.484;11.112;2024-02-23T08:35:18;9.20;99.90
2721;DHT22;1368;49.484;11.112;2024-02-23T08:37:44;9.40;99.90
2721;DHT22;1368;49.484;11.112;2024-02-23T08:40:10;9.30;99.90
2721;DHT22;1368;49.484;11.112;2024-02-23T08:42:35;9.50;99.90
2721;DHT22;1368;49.484;11.112;2024-02-23T08:45:01;9.90;99.90
2721;DHT22;1368;49.484;11.112;2024-02-23T08:47:27;10.20;99.90
2721;DHT22;1368;49.484;11.112;2024-02-23T08:49:57;10.50;99.90
2721;DHT22;1368;49.484;11.112;2024-02-23T08:52:23;10.60;99.90
2721;DHT22;1368;49.484;11.112;2024-02-23T08:54:48;10.40;99.90
2721;DHT22;1368;49.484;11.112;2024-02-23T08:57:14;10.30;99.90
2721;DHT22;1368;49.484;11.112;2024-02-23T08:59:44;10.30;99.90
2721;DHT22;1368;49.484;11.112;2024-02-23T09:02:10;10.30;99.90
2721;DHT22;1368;49.484;11.112;2024-02-23T09:04:36;10.10;99.90
2721;DHT22;1368;49.484;11.112;2024-02-23T09:07:01;9.80;99.90
2721;DHT22;1368;49.484;11.112;2024-02-23T09:09:27;9.20;99.90
2721;DHT22;1368;49.484;11.112;2024-02-23T09:11:53;9.10;99.90
2721;DHT22;1368;49.484;11.112;2024-02-23T09:14:18;9.10;99.90
2721;DHT22;1368;49.484;11.112;2024-02-23T09:16:44;9.20;99.90
2721;DHT22;1368;49.484;11.112;2024-02-23T09:19:11;9.20;99.90
2721;DHT22;1368;49.484;11.112;2024-02-23T09:21:37;9.40;99.90
2721;DHT22;1368;49.484;11.112;2024-02-23T09:24:03;9.60;99.90
2721;DHT22;1368;49.484;11.112;2024-02-23T09:26:29;9.80;99.90
2721;DHT22;1368;49.484;11.112;2024-02-23T09:28:55;9.80;99.90
2721;DHT22;1368;49.484;11.112;2024-02-23T09:31:20;9.50;99.90
2721;DHT22;1368;49.484;11.112;2024-02-23T09:33:46;9.20;99.90
2721;DHT22;1368;49.484;11.112;2024-02-23T09:36:12;9.30;99.90
2721;DHT22;1368;49.484;11.112;2024-02-23T09:38:37;9.40;99.90
2721;DHT22;1368;49.484;11.112;2024-02-23T09:41:03;9.90;99.90
2721;DHT22;1368;49.484;11.112;2024-02-23T09:43:29;9.40;99.90
2721;DHT22;1368;49.484;11.112;2024-02-23T09:45:59;9.10;99.90
2721;DHT22;1368;49.484;11.112;2024-02-23T09:48:25;8.80;99.90
2721;DHT22;1368;49.484;11.112;2024-02-23T09:50:52;9.00;99.90
2721;DHT22;1368;49.484;11.112;2024-02-23T09:53:19;9.30;99.90
2721;DHT22;1368;49.484;11.112;2024-02-23T09:55:45;10.30;99.90
2721;DHT22;1368;49.484;11.112;2024-02-23T09:58:14;10.20;99.90
2721;DHT22;1368;49.484;11.112;2024-02-23T10:00:42;10.20;99.90
2721;DHT22;1368;49.484;11.112;2024-02-23T10:03:09;10.10;99.90
2721;DHT22;1368;49.484;11.112;2024-02-23T10:05:34;10.10;99.90
2721;DHT22;1368;49.484;11.112;2024-02-23T10:08:00;10.20;99.90
2721;DHT22;1368;49.484;11.112;2024-02-23T10:10:35;10.00;99.90
2721;DHT22;1368;49.484;11.112;2024-02-23T10:13:01;9.80;99.90
2721;DHT22;1368;49.484;11.112;2024-02-23T10:15:29;9.80;99.90
2721;DHT22;1368;49.484;11.112;2024-02-23T10:17:55;9.50;99.90
2721;DHT22;1368;49.484;11.112;2024-02-23T10:20:21;9.30;99.90
2721;DHT22;1368;49.484;11.112;2024-02-23T10:22:46;9.60;99.90
2721;DHT22;1368;49.484;11.112;2024-02-23T10:25:12;9.90;99.90
2721;DHT22;1368;49.484;11.112;2024-02-23T10:27:40;9.50;99.90
2721;DHT22;1368;49.484;11.112;2024-02-23T10:30:05;9.50;99.90
2721;DHT22;1368;49.484;11.112;2024-02-23T10:32:32;9.30;99.90
2721;DHT22;1368;49.484;11.112;2024-02-23T10:35:00;9.50;99.90
2721;DHT22;1368;49.484;11.112;2024-02-23T10:37:29;9.80;99.90
2721;DHT22;1368;49.484;11.112;2024-02-23T10:39:57;10.10;99.90
2721;DHT22;1368;49.484;11.112;2024-02-23T10:42:28;10.20;99.90
2721;DHT22;1368;49.484;11.112;2024-02-23T10:44:57;10.00;99.90
2721;DHT22;1368;49.484;11.112;2024-02-23T10:47:26;10.00;99.90
2721;DHT22;1368;49.484;11.112;2024-02-23T10:49:53;10.10;99.90
2721;DHT22;1368;49.484;11.112;2024-02-23T10:52:23;10.10;99.90
2721;DHT22;1368;49.484;11.112;2024-02-23T10:54:50;10.10;99.90
2721;DHT22;1368;49.484;11.112;2024-02-23T10:57:17;10.30;99.90
2721;DHT22;1368;49.484;11.112;2024-02-23T10:59:48;10.30;99.90
2721;DHT22;1368;49.484;11.112;2024-02-23T11:02:19;10.00;99.90
2721;DHT22;1368;49.484;11.112;2024-02-23T11:04:50;10.10;99.90
2721;DHT22;1368;49.484;11.112;2024-02-23T11:07:18;10.00;99.70
2721;DHT22;1368;49.484;11.112;2024-02-23T11:09:52;9.90;99.90
2721;DHT22;1368;49.484;11.112;2024-02-23T11:12:25;10.00;99.90
2721;DHT22;1368;49.484;11.112;2024-02-23T11:14:51;10.00;99.70
2721;DHT22;1368;49.484;11.112;2024-02-23T11:17:20;10.10;99.50
2721;DHT22;1368;49.484;11.112;2024-02-23T11:19:48;10.30;99.70
2721;DHT22;1368;49.484;11.112;2024-02-23T11:22:14;10.20;99.80
2721;DHT22;1368;49.484;11.112;2024-02-23T11:24:44;10.50;99.90
2721;DHT22;1368;49.484;11.112;2024-02-23T11:27:14;10.70;99.50
2721;DHT22;1368;49.484;11.112;2024-02-23T11:29:42;11.00;99.40
2721;DHT22;1368;49.484;11.112;2024-02-23T11:32:15;10.90;99.20
2721;DHT22;1368;49.484;11.112;2024-02-23T11:34:41;10.90;98.50
2721;DHT22;1368;49.484;11.112;2024-02-23T11:37:09;11.00;99.00
2721;DHT22;1368;49.484;11.112;2024-02-23T11:39:37;10.90;99.20
2721;DHT22;1368;49.484;11.112;2024-02-23T11:42:04;10.80;99.20
2721;DHT22;1368;49.484;11.112;2024-02-23T11:44:30;10.80;99.50
2721;DHT22;1368;49.484;11.112;2024-02-23T11:46:55;10.80;99.10
2721;DHT22;1368;49.484;11.112;2024-02-23T11:49:30;10.70;99.20
2721;DHT22;1368;49.484;11.112;2024-02-23T11:51:56;10.60;99.90
2721;DHT22;1368;49.484;11.112;2024-02-23T11:54:22;10.70;99.90
2721;DHT22;1368;49.484;11.112;2024-02-23T11:56:48;10.60;99.50
2721;DHT22;1368;49.484;11.112;2024-02-23T11:59:15;10.80;99.90
2721;DHT22;1368;49.484;11.112;2024-02-23T12:01:41;11.10;99.90
2721;DHT22;1368;49.484;11.112;2024-02-23T12:04:07;11.40;99.80
2721;DHT22;1368;49.484;11.112;2024-02-23T12:06:33;10.90;99.90
2721;DHT22;1368;49.484;11.112;2024-02-23T12:09:00;10.70;99.90
2721;DHT22;1368;49.484;11.112;2024-02-23T12:11:26;10.90;99.90
2721;DHT22;1368;49.484;11.112;2024-02-23T12:13:53;11.30;99.90
2721;DHT22;1368;49.484;11.112;2024-02-23T12:16:20;11.50;99.90
2721;DHT22;1368;49.484;11.112;2024-02-23T12:18:53;11.70;99.00
2721;DHT22;1368;49.484;11.112;2024-02-23T12:21:19;11.80;99.30
2721;DHT22;1368;49.484;11.112;2024-02-23T12:23:48;12.20;99.00
2721;DHT22;1368;49.484;11.112;2024-02-23T12:26:16;11.20;99.80
2721;DHT22;1368;49.484;11.112;2024-02-23T12:28:43;11.20;99.90
2721;DHT22;1368;49.484;11.112;2024-02-23T12:31:09;11.20;99.90
2721;DHT22;1368;49.484;11.112;2024-02-23T12:33:37;11.10;99.90
2721;DHT22;1368;49.484;11.112;2024-02-23T12:36:04;10.50;99.90
2721;DHT22;1368;49.484;11.112;2024-02-23T12:38:30;10.10;99.90
2721;DHT22;1368;49.484;11.112;2024-02-23T12:40:56;9.80;99.90
2721;DHT22;1368;49.484;11.112;2024-02-23T12:43:22;10.00;99.90
2721;DHT22;1368;49.484;11.112;2024-02-23T12:45:53;10.10;99.90
2721;DHT22;1368;49.484;11.112;2024-02-23T12:48:19;10.20;99.90
2721;DHT22;1368;49.484;11.112;2024-02-23T12:50:46;10.40;99.90
2721;DHT22;1368;49.484;11.112;2024-02-23T12:53:32;10.00;99.90
2721;DHT22;1368;49.484;11.112;2024-02-23T12:55:59;9.50;99.90
2721;DHT22;1368;49.484;11.112;2024-02-23T12:58:25;9.70;99.90
2721;DHT22;1368;49.484;11.112;2024-02-23T13:00:51;10.00;99.90
2721;DHT22;1368;49.484;11.112;2024-02-23T13:03:16;10.20;99.90
2721;DHT22;1368;49.484;11.112;2024-02-23T13:05:42;10.70;99.90
2721;DHT22;1368;49.484;11.112;2024-02-23T13:08:07;10.40;99.90
2721;DHT22;1368;49.484;11.112;2024-02-23T13:10:33;10.40;99.90
2721;DHT22;1368;49.484;11.112;2024-02-23T13:13:00;10.50;99.90
2721;DHT22;1368;49.484;11.112;2024-02-23T13:15:26;10.50;99.90
2721;DHT22;1368;49.484;11.112;2024-02-23T13:17:51;10.60;99.90
2721;DHT22;1368;49.484;11.112;2024-02-23T13:20:17;10.80;99.90
2721;DHT22;1368;49.484;11.112;2024-02-23T13:22:42;10.80;99.90
2721;DHT22;1368;49.484;11.112;2024-02-23T13:25:08;10.80;99.90
2721;DHT22;1368;49.484;11.112;2024-02-23T13:27:33;10.90;99.90
2721;DHT22;1368;49.484;11.112;2024-02-23T13:29:59;10.90;99.90
2721;DHT22;1368;49.484;11.112;2024-02-23T13:32:24;10.90;99.90
2721;DHT22;1368;49.484;11.112;2024-02-23T13:34:50;11.10;99.90
2721;DHT22;1368;49.484;11.112;2024-02-23T13:37:18;11.30;99.30
2721;DHT22;1368;49.484;11.112;2024-02-23T13:39:43;11.40;99.90
2721;DHT22;1368;49.484;11.112;2024-02-23T13:42:09;11.30;98.90
2721;DHT22;1368;49.484;11.112;2024-02-23T13:44:35;11.00;99.40
2721;DHT22;1368;49.484;11.112;2024-02-23T13:47:01;11.00;99.50
2721;DHT22;1368;49.484;11.112;2024-02-23T13:49:28;11.20;99.70
2721;DHT22;1368;49.484;11.112;2024-02-23T13:51:54;11.50;99.30
2721;DHT22;1368;49.484;11.112;2024-02-23T13:54:20;11.70;99.00
2721;DHT22;1368;49.484;11.112;2024-02-23T13:56:46;11.50;98.30
2721;DHT22;1368;49.484;11.112;2024-02-23T13:59:12;11.40;98.50
2721;DHT22;1368;49.484;11.112;2024-02-23T14:01:38;11.50;98.20
2721;DHT22;1368;49.484;11.112;2024-02-23T14:04:07;11.30;98.30
2721;DHT22;1368;49.484;11.112;2024-02-23T14:06:35;11.40;98.40
2721;DHT22;1368;49.484;11.112;2024-02-23T14:09:01;12.00;98.90
2721;DHT22;1368;49.484;11.112;2024-02-23T14:11:29;11.90;98.00
2721;DHT22;1368;49.484;11.112;2024-02-23T14:13:55;11.30;98.00
2721;DHT22;1368;49.484;11.112;2024-02-23T14:16:21;10.90;97.60
2721;DHT22;1368;49.484;11.112;2024-02-23T14:18:47;10.90;98.50
2721;DHT22;1368;49.484;11.112;2024-02-23T14:21:13;11.00;98.80
2721;DHT22;1368;49.484;11.112;2024-02-23T14:23:39;11.10;99.30
2721;DHT22;1368;49.484;11.112;2024-02-23T14:26:05;11.00;99.80
2721;DHT22;1368;49.484;11.112;2024-02-23T14:28:30;11.10;99.40
2721;DHT22;1368;49.484;11.112;2024-02-23T14:30:56;10.90;99.30
2721;DHT22;1368;49.484;11.112;2024-02-23T14:33:22;10.70;99.00
2721;DHT22;1368;49.484;11.112;2024-02-23T14:35:48;11.10;99.80
2721;DHT22;1368;49.484;11.112;2024-02-23T14:38:15;10.70;99.70
2721;DHT22;1368;49.484;11.112;2024-02-23T14:40:41;10.60;99.90
2721;DHT22;1368;49.484;11.112;2024-02-23T14:43:07;10.70;99.90
2721;DHT22;1368;49.484;11.112;2024-02-23T14:45:33;10.90;99.90
2721;DHT22;1368;49.484;11.112;2024-02-23T14:47:58;10.60;99.90
2721;DHT22;1368;49.484;11.112;2024-02-23T14:50:24;10.50;99.90
2721;DHT22;1368;49.484;11.112;2024-02-23T14:52:50;10.70;99.90
2721;DHT22;1368;49.484;11.112;2024-02-23T14:55:15;10.80;99.90
2721;DHT22;1368;49.484;11.112;2024-02-23T14:57:41;10.60;99.80
2721;DHT22;1368;49.484;11.112;2024-02-23T15:00:07;10.40;99.90
2721;DHT22;1368;49.484;11.112;2024-02-23T15:02:33;10.20;99.90
2721;DHT22;1368;49.484;11.112;2024-02-23T15:04:58;10.20;99.90
2721;DHT22;1368;49.484;11.112;2024-02-23T15:07:24;10.30;99.90
2721;DHT22;1368;49.484;11.112;2024-02-23T15:09:50;10.40;99.90
2721;DHT22;1368;49.484;11.112;2024-02-23T15:12:15;10.40;99.90
2721;DHT22;1368;49.484;11.112;2024-02-23T15:14:41;10.40;99.90
2721;DHT22;1368;49.484;11.112;2024-02-23T15:17:07;10.30;99.90
2721;DHT22;1368;49.484;11.112;2024-02-23T15:19:33;10.10;99.90
2721;DHT22;1368;49.484;11.112;2024-02-23T15:21:58;9.80;99.90
2721;DHT22;1368;49.484;11.112;2024-02-23T15:24:24;9.70;99.90
2721;DHT22;1368;49.484;11.112;2024-02-23T15:26:50;9.50;99.90
2721;DHT22;1368;49.484;11.112;2024-02-23T15:29:16;9.60;99.90
2721;DHT22;1368;49.484;11.112;2024-02-23T15:31:41;9.70;99.90
2721;DHT22;1368;49.484;11.112;2024-02-23T15:34:10;10.00;99.90
2721;DHT22;1368;49.484;11.112;2024-02-23T15:36:36;10.10;99.90
2721;DHT22;1368;49.484;11.112;2024-02-23T15:39:02;9.70;99.90
2721;DHT22;1368;49.484;11.112;2024-02-23T15:41:32;9.50;99.90
2721;DHT22;1368;49.484;11.112;2024-02-23T15:44:02;9.00;99.90
2721;DHT22;1368;49.484;11.112;2024-02-23T15:46:28;8.80;99.90
2721;DHT22;1368;49.484;11.112;2024-02-23T15:48:54;8.60;99.90